createdAt,value
2019-02-28T15:51:57.459Z,13.47
2019-02-28T15:54:27.742Z,13.42
2019-02-28T15:56:58.045Z,13.62
2019-02-28T15:59:34.005Z,13.58
2019-02-28T16:02:06.367Z,13.56
2019-02-28T16:04:54.202Z,13.54
2019-02-28T16:07:24.516Z,13.49
2019-02-28T16:09:57.078Z,13.40
2019-02-28T16:12:26.707Z,13.29
2019-02-28T16:14:56.856Z,13.26
2019-02-28T16:17:27.047Z,13.17
2019-02-28T16:19:57.334Z,13.08
2019-02-28T16:22:28.480Z,13.00
2019-02-28T16:24:58.707Z,12.92
2019-02-28T16:27:29.553Z,12.83
2019-02-28T16:30:00.938Z,12.77
2019-02-28T16:32:31.224Z,12.71
2019-02-28T16:35:01.567Z,12.67
2019-02-28T16:37:32.272Z,12.64
2019-02-28T16:40:04.041Z,12.59
2019-02-28T16:42:34.273Z,12.51
2019-02-28T16:45:06.138Z,12.46
2019-02-28T16:47:37.159Z,12.41
2019-02-28T16:50:08.384Z,12.41
2019-02-28T16:55:12.043Z,12.45
2019-02-28T16:57:43.625Z,12.37
2019-02-28T17:00:15.769Z,12.31
2019-02-28T17:02:46.368Z,12.28
2019-02-28T17:05:16.895Z,12.25
2019-02-28T17:07:47.356Z,12.23
2019-02-28T17:10:19.857Z,12.25
2019-02-28T17:13:05.071Z,12.26
2019-02-28T17:15:45.833Z,12.27
2019-02-28T17:18:21.482Z,12.25
2019-02-28T17:20:50.819Z,12.23
2019-02-28T17:23:21.347Z,12.18
2019-02-28T17:25:53.498Z,12.17
2019-02-28T17:28:32.741Z,12.14
2019-02-28T17:31:20.849Z,12.08
2019-02-28T17:33:51.196Z,12.02
2019-02-28T17:36:21.398Z,11.94
2019-02-28T17:38:51.734Z,11.85
2019-02-28T17:41:21.996Z,11.75
2019-02-28T17:44:37.490Z,11.65
2019-02-28T17:47:44.927Z,11.58
2019-02-28T17:50:54.636Z,11.43
2019-02-28T17:54:20.759Z,11.36
2019-02-28T17:58:15.505Z,11.25
2019-02-28T18:01:25.326Z,11.14
2019-02-28T18:04:48.776Z,11.05
2019-02-28T18:08:27.741Z,11.03
2019-02-28T18:11:47.080Z,10.98
2019-02-28T18:14:45.547Z,10.90
2019-02-28T18:18:28.291Z,10.88
2019-02-28T18:21:41.061Z,10.86
2019-02-28T18:25:17.200Z,10.82
2019-02-28T18:28:44.243Z,10.80
2019-02-28T18:31:19.202Z,10.79
2019-02-28T18:34:02.397Z,10.81
2019-02-28T18:36:33.710Z,10.84
2019-02-28T18:39:08.139Z,10.84
2019-02-28T18:41:38.879Z,10.87
2019-02-28T18:44:13.683Z,10.85
2019-02-28T18:46:44.208Z,10.87
2019-02-28T18:49:15.099Z,10.87
2019-02-28T18:51:46.232Z,10.87
2019-02-28T18:54:16.863Z,10.88
2019-02-28T18:56:47.337Z,10.88
2019-02-28T18:59:18.028Z,10.88
2019-02-28T19:01:48.619Z,10.88
2019-02-28T19:04:19.120Z,10.89
2019-02-28T19:06:49.503Z,10.89
2019-02-28T19:09:22.698Z,10.90
2019-02-28T19:11:53.320Z,10.90
2019-02-28T19:14:23.929Z,10.89
2019-02-28T19:16:54.963Z,10.88
2019-02-28T19:19:25.497Z,10.83
2019-02-28T19:21:56.052Z,10.86
2019-02-28T19:24:26.493Z,10.87
2019-02-28T19:26:57.001Z,10.85
2019-02-28T19:29:27.380Z,10.85
2019-02-28T19:32:03.754Z,10.85
2019-02-28T19:34:34.412Z,10.83
2019-02-28T19:37:05.124Z,10.76
2019-02-28T19:39:35.425Z,10.79
2019-02-28T19:42:05.900Z,10.76
2019-02-28T19:44:36.385Z,10.64
2019-02-28T19:47:06.943Z,10.68
2019-02-28T19:49:37.434Z,10.66
2019-02-28T19:52:07.912Z,10.59
2019-02-28T19:54:38.414Z,10.54
2019-02-28T19:57:08.616Z,10.47
2019-02-28T19:59:38.945Z,10.43
2019-02-28T20:02:09.191Z,10.37
2019-02-28T20:04:39.285Z,10.30
2019-02-28T20:07:09.430Z,10.27
2019-02-28T20:09:39.615Z,10.29
2019-02-28T20:12:09.774Z,10.30
2019-02-28T20:14:39.888Z,10.33
2019-02-28T20:17:10.156Z,10.35
2019-02-28T20:19:40.216Z,10.38
2019-02-28T20:22:10.452Z,10.39
2019-02-28T20:24:40.728Z,10.43
2019-02-28T20:27:10.942Z,10.47
2019-02-28T20:29:41.136Z,10.50
2019-02-28T20:32:11.398Z,10.52
2019-02-28T20:34:41.447Z,10.54
2019-02-28T20:37:11.633Z,10.55
2019-02-28T20:39:41.808Z,10.54
2019-02-28T20:42:12.146Z,10.52
2019-02-28T20:44:42.503Z,10.47
2019-02-28T20:47:12.697Z,10.43
2019-02-28T20:49:42.941Z,10.43
2019-02-28T20:52:13.149Z,10.45
2019-02-28T20:54:43.270Z,10.47
2019-02-28T20:57:13.587Z,10.50
2019-02-28T20:59:43.736Z,10.52
2019-02-28T21:02:14.046Z,10.52
2019-02-28T21:04:44.162Z,10.50
2019-02-28T21:07:14.715Z,10.49
2019-02-28T21:09:45.281Z,10.50
2019-02-28T21:12:15.506Z,10.50
2019-02-28T21:14:45.656Z,10.52
2019-02-28T21:17:15.812Z,10.53
2019-02-28T21:19:45.970Z,10.54
2019-02-28T21:22:16.185Z,10.55
2019-02-28T21:24:46.481Z,10.56
2019-02-28T21:27:16.645Z,10.55
2019-02-28T21:29:46.797Z,10.52
2019-02-28T21:32:17.093Z,10.43
2019-02-28T21:34:47.235Z,10.35
2019-02-28T21:37:17.570Z,10.32
2019-02-28T21:39:47.742Z,10.27
2019-02-28T21:42:18.083Z,10.13
2019-02-28T21:44:48.231Z,9.98
2019-02-28T21:47:18.483Z,9.86
2019-02-28T21:49:48.606Z,9.77
2019-02-28T21:52:18.671Z,9.72
2019-02-28T21:54:48.825Z,9.66
2019-02-28T21:57:19.297Z,9.65
2019-02-28T21:59:49.806Z,9.73
2019-02-28T22:02:27.592Z,9.83
2019-02-28T22:04:57.952Z,9.93
2019-02-28T22:07:28.475Z,10.02
2019-02-28T22:09:58.983Z,10.09
2019-02-28T22:12:29.152Z,10.13
2019-02-28T22:14:59.314Z,10.19
2019-02-28T22:17:29.449Z,10.23
2019-02-28T22:19:59.630Z,10.47
2019-02-28T22:22:29.777Z,10.38
2019-02-28T22:25:00.006Z,10.42
2019-02-28T22:27:30.084Z,10.42
2019-02-28T22:30:02.102Z,10.43
2019-02-28T22:32:38.413Z,10.44
2019-02-28T22:35:22.681Z,10.47
2019-02-28T22:37:52.947Z,10.47
2019-02-28T22:40:23.169Z,10.49
2019-02-28T22:42:53.333Z,10.51
2019-02-28T22:45:23.488Z,10.53
2019-02-28T22:47:53.645Z,10.55
2019-02-28T22:50:23.743Z,10.57
2019-02-28T22:52:55.585Z,10.57
2019-02-28T22:55:25.871Z,10.56
2019-02-28T22:57:56.027Z,10.57
2019-02-28T23:00:46.787Z,10.58
2019-02-28T23:03:17.094Z,10.58
2019-02-28T23:05:47.399Z,10.56
2019-02-28T23:08:17.553Z,10.59
2019-02-28T23:10:47.791Z,10.61
2019-02-28T23:13:17.946Z,10.62
2019-02-28T23:15:48.190Z,10.66
2019-02-28T23:18:18.308Z,10.62
2019-02-28T23:20:48.576Z,10.67
2019-02-28T23:23:18.760Z,10.67
2019-02-28T23:25:49.090Z,10.65
2019-02-28T23:28:28.698Z,10.63
2019-02-28T23:31:57.884Z,10.62
2019-02-28T23:34:41.614Z,10.62
2019-02-28T23:37:11.827Z,10.58
2019-02-28T23:39:42.017Z,10.61
2019-02-28T23:42:12.525Z,10.62
2019-02-28T23:44:42.785Z,10.64
2019-02-28T23:47:13.045Z,10.66
2019-02-28T23:49:43.343Z,10.65
2019-02-28T23:52:13.762Z,10.65
2019-02-28T23:54:43.971Z,10.68
2019-02-28T23:57:14.048Z,10.67
2019-02-28T23:59:44.373Z,10.68
